sensor_id;sensor_type;location;lat;lon;timestamp;temperature;humidity
80290;SHT30;69592;44.804;-0.550;2023-07-29T00:00:31;24.51;79.85
80290;SHT30;69592;44.804;-0.550;2023-07-29T00:02:56;24.44;80.01
80290;SHT30;69592;44.804;-0.550;2023-07-29T00:05:22;24.29;80.43
80290;SHT30;69592;44.804;-0.550;2023-07-29T00:07:47;24.38;80.03
80290;SHT30;69592;44.804;-0.550;2023-07-29T00:10:13;24.27;80.09
80290;SHT30;69592;44.804;-0.550;2023-07-29T00:12:38;24.24;80.25
80290;SHT30;69592;44.804;-0.550;2023-07-29T00:15:04;24.34;79.93
80290;SHT30;69592;44.804;-0.550;2023-07-29T00:17:29;24.34;80.07
80290;SHT30;69592;44.804;-0.550;2023-07-29T00:19:54;24.17;80.46
80290;SHT30;69592;44.804;-0.550;2023-07-29T00:22:20;24.15;80.41
80290;SHT30;69592;44.804;-0.550;2023-07-29T00:24:51;24.28;79.83
80290;SHT30;69592;44.804;-0.550;2023-07-29T00:27:17;24.35;79.90
80290;SHT30;69592;44.804;-0.550;2023-07-29T00:29:42;24.39;79.80
80290;SHT30;69592;44.804;-0.550;2023-07-29T00:32:07;24.38;79.74
80290;SHT30;69592;44.804;-0.550;2023-07-29T00:34:33;24.18;80.47
80290;SHT30;69592;44.804;-0.550;2023-07-29T00:36:58;24.28;80.53
80290;SHT30;69592;44.804;-0.550;2023-07-29T00:39:23;24.14;81.17
80290;SHT30;69592;44.804;-0.550;2023-07-29T00:41:49;24.05;81.53
80290;SHT30;69592;44.804;-0.550;2023-07-29T00:44:14;24.20;80.79
80290;SHT30;69592;44.804;-0.550;2023-07-29T00:46:40;24.22;81.50
80290;SHT30;69592;44.804;-0.550;2023-07-29T00:49:06;24.01;81.74
80290;SHT30;69592;44.804;-0.550;2023-07-29T00:51:32;23.94;82.30
80290;SHT30;69592;44.804;-0.550;2023-07-29T00:53:57;23.83;82.18
80290;SHT30;69592;44.804;-0.550;2023-07-29T00:56:23;23.84;82.32
80290;SHT30;69592;44.804;-0.550;2023-07-29T00:58:48;23.92;81.89
80290;SHT30;69592;44.804;-0.550;2023-07-29T01:01:13;23.94;81.85
80290;SHT30;69592;44.804;-0.550;2023-07-29T01:03:39;23.90;81.76
80290;SHT30;69592;44.804;-0.550;2023-07-29T01:08:53;23.97;81.26
80290;SHT30;69592;44.804;-0.550;2023-07-29T01:13:58;24.14;81.21
80290;SHT30;69592;44.804;-0.550;2023-07-29T01:16:41;24.08;81.39
80290;SHT30;69592;44.804;-0.550;2023-07-29T01:22:02;23.93;81.56
80290;SHT30;69592;44.804;-0.550;2023-07-29T01:24:28;23.88;81.59
80290;SHT30;69592;44.804;-0.550;2023-07-29T01:26:53;23.90;82.09
80290;SHT30;69592;44.804;-0.550;2023-07-29T01:29:19;23.85;81.83
80290;SHT30;69592;44.804;-0.550;2023-07-29T01:31:47;23.81;82.23
80290;SHT30;69592;44.804;-0.550;2023-07-29T01:37:08;23.73;82.45
80290;SHT30;69592;44.804;-0.550;2023-07-29T01:39:36;23.83;82.53
80290;SHT30;69592;44.804;-0.550;2023-07-29T01:42:03;23.83;82.28
80290;SHT30;69592;44.804;-0.550;2023-07-29T01:44:28;23.70;82.56
80290;SHT30;69592;44.804;-0.550;2023-07-29T01:46:59;23.71;82.73
80290;SHT30;69592;44.804;-0.550;2023-07-29T01:49:24;23.77;82.87
80290;SHT30;69592;44.804;-0.550;2023-07-29T01:51:50;23.74;82.78
80290;SHT30;69592;44.804;-0.550;2023-07-29T01:54:15;23.70;83.00
80290;SHT30;69592;44.804;-0.550;2023-07-29T01:56:43;23.66;82.83
80290;SHT30;69592;44.804;-0.550;2023-07-29T01:59:08;23.64;82.64
80290;SHT30;69592;44.804;-0.550;2023-07-29T02:01:34;23.64;82.77
80290;SHT30;69592;44.804;-0.550;2023-07-29T02:03:59;23.67;82.94
80290;SHT30;69592;44.804;-0.550;2023-07-29T02:06:25;23.67;83.08
80290;SHT30;69592;44.804;-0.550;2023-07-29T02:08:53;23.67;82.93
80290;SHT30;69592;44.804;-0.550;2023-07-29T02:11:19;23.71;82.90
80290;SHT30;69592;44.804;-0.550;2023-07-29T02:13:45;23.70;82.94
80290;SHT30;69592;44.804;-0.550;2023-07-29T02:16:11;23.75;82.83
80290;SHT30;69592;44.804;-0.550;2023-07-29T02:18:36;23.80;82.68
80290;SHT30;69592;44.804;-0.550;2023-07-29T02:21:02;23.77;83.20
80290;SHT30;69592;44.804;-0.550;2023-07-29T02:23:28;23.77;83.05
80290;SHT30;69592;44.804;-0.550;2023-07-29T02:25:53;23.77;82.97
80290;SHT30;69592;44.804;-0.550;2023-07-29T02:28:19;23.71;82.93
80290;SHT30;69592;44.804;-0.550;2023-07-29T02:30:44;23.66;83.09
80290;SHT30;69592;44.804;-0.550;2023-07-29T02:33:10;23.70;83.06
80290;SHT30;69592;44.804;-0.550;2023-07-29T02:35:35;23.69;82.81
80290;SHT30;69592;44.804;-0.550;2023-07-29T02:38:01;23.71;83.00
80290;SHT30;69592;44.804;-0.550;2023-07-29T02:40:26;23.66;83.20
80290;SHT30;69592;44.804;-0.550;2023-07-29T02:42:52;23.63;83.09
80290;SHT30;69592;44.804;-0.550;2023-07-29T02:45:17;23.59;83.26
80290;SHT30;69592;44.804;-0.550;2023-07-29T02:47:43;23.47;83.58
80290;SHT30;69592;44.804;-0.550;2023-07-29T02:50:11;23.42;84.10
80290;SHT30;69592;44.804;-0.550;2023-07-29T02:52:37;23.39;84.06
80290;SHT30;69592;44.804;-0.550;2023-07-29T02:55:02;23.39;84.12
80290;SHT30;69592;44.804;-0.550;2023-07-29T02:57:28;23.29;84.11
80290;SHT30;69592;44.804;-0.550;2023-07-29T02:59:53;23.29;84.36
80290;SHT30;69592;44.804;-0.550;2023-07-29T03:02:19;23.19;84.60
80290;SHT30;69592;44.804;-0.550;2023-07-29T03:04:48;23.16;84.82
80290;SHT30;69592;44.804;-0.550;2023-07-29T03:07:13;23.19;84.83
80290;SHT30;69592;44.804;-0.550;2023-07-29T03:09:39;23.22;84.73
80290;SHT30;69592;44.804;-0.550;2023-07-29T03:12:07;23.26;84.61
80290;SHT30;69592;44.804;-0.550;2023-07-29T03:14:32;23.30;84.33
80290;SHT30;69592;44.804;-0.550;2023-07-29T03:17:02;23.24;84.78
80290;SHT30;69592;44.804;-0.550;2023-07-29T03:19:28;23.29;84.25
80290;SHT30;69592;44.804;-0.550;2023-07-29T03:21:53;23.32;84.39
80290;SHT30;69592;44.804;-0.550;2023-07-29T03:24:18;23.33;84.55
80290;SHT30;69592;44.804;-0.550;2023-07-29T03:26:44;23.29;84.26
80290;SHT30;69592;44.804;-0.550;2023-07-29T03:29:09;23.45;83.63
80290;SHT30;69592;44.804;-0.550;2023-07-29T03:31:34;23.16;84.31
80290;SHT30;69592;44.804;-0.550;2023-07-29T03:34:00;22.99;85.04
80290;SHT30;69592;44.804;-0.550;2023-07-29T03:36:25;22.76;85.53
80290;SHT30;69592;44.804;-0.550;2023-07-29T03:38:51;22.65;85.67
80290;SHT30;69592;44.804;-0.550;2023-07-29T03:41:16;22.76;85.70
80290;SHT30;69592;44.804;-0.550;2023-07-29T03:43:41;22.94;85.54
80290;SHT30;69592;44.804;-0.550;2023-07-29T03:46:07;23.05;84.88
80290;SHT30;69592;44.804;-0.550;2023-07-29T03:48:35;23.16;84.52
80290;SHT30;69592;44.804;-0.550;2023-07-29T03:51:01;22.99;84.78
80290;SHT30;69592;44.804;-0.550;2023-07-29T03:53:26;22.84;85.37
80290;SHT30;69592;44.804;-0.550;2023-07-29T03:55:51;22.76;85.67
80290;SHT30;69592;44.804;-0.550;2023-07-29T03:58:17;22.95;85.07
80290;SHT30;69592;44.804;-0.550;2023-07-29T04:00:42;22.95;85.18
80290;SHT30;69592;44.804;-0.550;2023-07-29T04:03:08;23.11;84.39
80290;SHT30;69592;44.804;-0.550;2023-07-29T04:05:33;23.16;84.39
80290;SHT30;69592;44.804;-0.550;2023-07-29T04:07:59;22.96;85.42
80290;SHT30;69592;44.804;-0.550;2023-07-29T04:10:24;23.05;84.90
80290;SHT30;69592;44.804;-0.550;2023-07-29T04:12:50;23.12;84.58
80290;SHT30;69592;44.804;-0.550;2023-07-29T04:15:15;23.18;84.91
80290;SHT30;69592;44.804;-0.550;2023-07-29T04:17:40;23.05;85.27
80290;SHT30;69592;44.804;-0.550;2023-07-29T04:20:06;22.89;85.69
80290;SHT30;69592;44.804;-0.550;2023-07-29T04:22:32;22.72;86.47
80290;SHT30;69592;44.804;-0.550;2023-07-29T04:24:58;22.84;86.09
80290;SHT30;69592;44.804;-0.550;2023-07-29T04:27:23;22.99;85.54
80290;SHT30;69592;44.804;-0.550;2023-07-29T04:29:49;23.09;85.38
80290;SHT30;69592;44.804;-0.550;2023-07-29T04:32:17;23.09;85.28
80290;SHT30;69592;44.804;-0.550;2023-07-29T04:34:42;23.12;85.45
80290;SHT30;69592;44.804;-0.550;2023-07-29T04:37:08;23.22;85.52
80290;SHT30;69592;44.804;-0.550;2023-07-29T04:39:33;23.20;85.16
80290;SHT30;69592;44.804;-0.550;2023-07-29T04:41:58;23.20;85.17
80290;SHT30;69592;44.804;-0.550;2023-07-29T04:44:24;23.29;85.12
80290;SHT30;69592;44.804;-0.550;2023-07-29T04:46:53;23.34;84.47
80290;SHT30;69592;44.804;-0.550;2023-07-29T04:49:18;23.42;84.54
80290;SHT30;69592;44.804;-0.550;2023-07-29T04:51:44;23.39;84.82
80290;SHT30;69592;44.804;-0.550;2023-07-29T04:54:09;23.38;84.92
80290;SHT30;69592;44.804;-0.550;2023-07-29T04:56:34;23.39;84.68
80290;SHT30;69592;44.804;-0.550;2023-07-29T04:59:00;23.39;84.56
80290;SHT30;69592;44.804;-0.550;2023-07-29T05:01:25;23.42;84.48
80290;SHT30;69592;44.804;-0.550;2023-07-29T05:03:51;23.42;85.16
80290;SHT30;69592;44.804;-0.550;2023-07-29T05:06:17;23.34;84.70
80290;SHT30;69592;44.804;-0.550;2023-07-29T05:08:42;23.40;84.69
80290;SHT30;69592;44.804;-0.550;2023-07-29T05:11:07;23.53;84.71
80290;SHT30;69592;44.804;-0.550;2023-07-29T05:13:33;23.53;85.62
80290;SHT30;69592;44.804;-0.550;2023-07-29T05:15:58;23.53;85.59
80290;SHT30;69592;44.804;-0.550;2023-07-29T05:18:24;23.59;85.84
80290;SHT30;69592;44.804;-0.550;2023-07-29T05:20:49;23.56;86.20
80290;SHT30;69592;44.804;-0.550;2023-07-29T05:23:14;23.40;86.40
80290;SHT30;69592;44.804;-0.550;2023-07-29T05:25:40;23.34;86.84
80290;SHT30;69592;44.804;-0.550;2023-07-29T05:28:05;23.27;87.22
80290;SHT30;69592;44.804;-0.550;2023-07-29T05:30:32;23.22;87.15
80290;SHT30;69592;44.804;-0.550;2023-07-29T05:32:59;23.12;87.63
80290;SHT30;69592;44.804;-0.550;2023-07-29T05:35:24;23.03;87.81
80290;SHT30;69592;44.804;-0.550;2023-07-29T05:37:50;23.03;87.93
80290;SHT30;69592;44.804;-0.550;2023-07-29T05:40:16;22.99;87.90
80290;SHT30;69592;44.804;-0.550;2023-07-29T05:42:42;23.02;88.25
80290;SHT30;69592;44.804;-0.550;2023-07-29T05:45:08;23.13;87.85
80290;SHT30;69592;44.804;-0.550;2023-07-29T05:47:33;23.12;87.59
80290;SHT30;69592;44.804;-0.550;2023-07-29T05:49:59;23.11;87.52
80290;SHT30;69592;44.804;-0.550;2023-07-29T05:52:27;23.06;87.03
80290;SHT30;69592;44.804;-0.550;2023-07-29T05:54:52;22.84;87.46
80290;SHT30;69592;44.804;-0.550;2023-07-29T05:57:17;22.78;87.58
80290;SHT30;69592;44.804;-0.550;2023-07-29T05:59:43;22.79;87.60
80290;SHT30;69592;44.804;-0.550;2023-07-29T06:02:08;22.78;87.65
80290;SHT30;69592;44.804;-0.550;2023-07-29T06:04:34;22.88;87.11
80290;SHT30;69592;44.804;-0.550;2023-07-29T06:07:00;22.78;87.32
80290;SHT30;69592;44.804;-0.550;2023-07-29T06:09:28;22.79;87.01
80290;SHT30;69592;44.804;-0.550;2023-07-29T06:11:53;22.89;87.37
80290;SHT30;69592;44.804;-0.550;2023-07-29T06:14:19;22.98;86.63
80290;SHT30;69592;44.804;-0.550;2023-07-29T06:16:44;23.11;86.25
80290;SHT30;69592;44.804;-0.550;2023-07-29T06:19:10;23.09;86.29
80290;SHT30;69592;44.804;-0.550;2023-07-29T06:21:35;23.03;86.42
80290;SHT30;69592;44.804;-0.550;2023-07-29T06:24:01;23.16;86.11
80290;SHT30;69592;44.804;-0.550;2023-07-29T06:26:29;23.12;85.83
80290;SHT30;69592;44.804;-0.550;2023-07-29T06:28:55;23.27;85.78
80290;SHT30;69592;44.804;-0.550;2023-07-29T06:31:20;23.30;85.56
80290;SHT30;69592;44.804;-0.550;2023-07-29T06:33:46;23.33;85.22
80290;SHT30;69592;44.804;-0.550;2023-07-29T06:36:11;23.32;85.53
80290;SHT30;69592;44.804;-0.550;2023-07-29T06:38:37;23.33;85.05
80290;SHT30;69592;44.804;-0.550;2023-07-29T06:41:04;23.34;85.03
80290;SHT30;69592;44.804;-0.550;2023-07-29T06:43:29;23.29;84.85
80290;SHT30;69592;44.804;-0.550;2023-07-29T06:45:54;23.38;85.11
80290;SHT30;69592;44.804;-0.550;2023-07-29T06:48:20;23.40;84.57
80290;SHT30;69592;44.804;-0.550;2023-07-29T06:50:46;23.39;84.66
80290;SHT30;69592;44.804;-0.550;2023-07-29T06:53:11;23.36;85.11
80290;SHT30;69592;44.804;-0.550;2023-07-29T06:55:39;23.39;84.62
80290;SHT30;69592;44.804;-0.550;2023-07-29T06:58:05;23.47;84.19
80290;SHT30;69592;44.804;-0.550;2023-07-29T07:00:30;23.57;84.04
80290;SHT30;69592;44.804;-0.550;2023-07-29T07:02:56;23.64;83.59
80290;SHT30;69592;44.804;-0.550;2023-07-29T07:05:21;23.70;83.39
80290;SHT30;69592;44.804;-0.550;2023-07-29T07:07:46;23.78;83.51
80290;SHT30;69592;44.804;-0.550;2023-07-29T07:10:13;23.84;83.32
80290;SHT30;69592;44.804;-0.550;2023-07-29T07:12:39;23.97;82.11
80290;SHT30;69592;44.804;-0.550;2023-07-29T07:15:04;24.13;81.23
80290;SHT30;69592;44.804;-0.550;2023-07-29T07:17:30;24.17;81.85
80290;SHT30;69592;44.804;-0.550;2023-07-29T07:19:55;24.18;82.09
80290;SHT30;69592;44.804;-0.550;2023-07-29T07:22:21;24.42;81.47
80290;SHT30;69592;44.804;-0.550;2023-07-29T07:24:46;24.62;80.64
80290;SHT30;69592;44.804;-0.550;2023-07-29T07:27:11;24.65;80.75
80290;SHT30;69592;44.804;-0.550;2023-07-29T07:29:37;24.66;80.32
80290;SHT30;69592;44.804;-0.550;2023-07-29T07:32:03;24.80;79.83
80290;SHT30;69592;44.804;-0.550;2023-07-29T07:34:29;24.89;78.90
80290;SHT30;69592;44.804;-0.550;2023-07-29T07:36:54;24.96;79.45
80290;SHT30;69592;44.804;-0.550;2023-07-29T07:39:19;24.89;79.65
80290;SHT30;69592;44.804;-0.550;2023-07-29T07:41:45;24.86;80.12
80290;SHT30;69592;44.804;-0.550;2023-07-29T07:44:10;24.78;79.09
80290;SHT30;69592;44.804;-0.550;2023-07-29T07:46:40;24.75;79.31
80290;SHT30;69592;44.804;-0.550;2023-07-29T07:49:05;24.73;79.88
80290;SHT30;69592;44.804;-0.550;2023-07-29T07:51:31;24.78;79.95
80290;SHT30;69592;44.804;-0.550;2023-07-29T07:53:56;24.83;79.79
80290;SHT30;69592;44.804;-0.550;2023-07-29T07:56:21;24.89;79.55
80290;SHT30;69592;44.804;-0.550;2023-07-29T07:58:47;24.90;79.20
80290;SHT30;69592;44.804;-0.550;2023-07-29T08:01:12;25.03;79.04
80290;SHT30;69592;44.804;-0.550;2023-07-29T08:03:37;25.15;78.88
80290;SHT30;69592;44.804;-0.550;2023-07-29T08:06:04;25.67;77.70
80290;SHT30;69592;44.804;-0.550;2023-07-29T08:08:29;25.88;76.44
80290;SHT30;69592;44.804;-0.550;2023-07-29T08:10:56;26.05;76.80
80290;SHT30;69592;44.804;-0.550;2023-07-29T08:13:22;25.90;76.72
80290;SHT30;69592;44.804;-0.550;2023-07-29T08:15:49;25.74;77.23
80290;SHT30;69592;44.804;-0.550;2023-07-29T08:18:15;25.71;77.25
80290;SHT30;69592;44.804;-0.550;2023-07-29T08:20:41;25.75;77.38
80290;SHT30;69592;44.804;-0.550;2023-07-29T08:23:07;25.78;76.40
80290;SHT30;69592;44.804;-0.550;2023-07-29T08:25:32;26.09;75.67
80290;SHT30;69592;44.804;-0.550;2023-07-29T08:27:57;26.08;76.21
80290;SHT30;69592;44.804;-0.550;2023-07-29T08:30:23;26.14;76.50
80290;SHT30;69592;44.804;-0.550;2023-07-29T08:32:48;26.35;75.44
80290;SHT30;69592;44.804;-0.550;2023-07-29T08:35:13;26.32;75.06
80290;SHT30;69592;44.804;-0.550;2023-07-29T08:37:39;26.42;74.52
80290;SHT30;69592;44.804;-0.550;2023-07-29T08:40:08;26.15;74.84
80290;SHT30;69592;44.804;-0.550;2023-07-29T08:42:33;25.91;75.65
80290;SHT30;69592;44.804;-0.550;2023-07-29T08:45:06;25.81;76.16
80290;SHT30;69592;44.804;-0.550;2023-07-29T08:47:33;25.84;76.55
80290;SHT30;69592;44.804;-0.550;2023-07-29T08:49:59;25.82;76.43
80290;SHT30;69592;44.804;-0.550;2023-07-29T08:52:26;25.66;76.55
80290;SHT30;69592;44.804;-0.550;2023-07-29T08:54:52;25.67;76.19
80290;SHT30;69592;44.804;-0.550;2023-07-29T08:57:20;25.78;76.32
80290;SHT30;69592;44.804;-0.550;2023-07-29T08:59:45;25.98;76.08
80290;SHT30;69592;44.804;-0.550;2023-07-29T09:02:11;25.78;76.19
80290;SHT30;69592;44.804;-0.550;2023-07-29T09:04:36;25.77;76.49
80290;SHT30;69592;44.804;-0.550;2023-07-29T09:07:02;26.02;75.87
80290;SHT30;69592;44.804;-0.550;2023-07-29T09:09:28;26.08;75.95
80290;SHT30;69592;44.804;-0.550;2023-07-29T09:11:54;26.05;76.02
80290;SHT30;69592;44.804;-0.550;2023-07-29T09:14:19;26.17;75.45
80290;SHT30;69592;44.804;-0.550;2023-07-29T09:16:45;26.53;73.97
80290;SHT30;69592;44.804;-0.550;2023-07-29T09:19:11;26.79;73.15
80290;SHT30;69592;44.804;-0.550;2023-07-29T09:21:39;26.97;73.01
80290;SHT30;69592;44.804;-0.550;2023-07-29T09:24:05;26.80;73.26
80290;SHT30;69592;44.804;-0.550;2023-07-29T09:26:33;26.80;73.07
80290;SHT30;69592;44.804;-0.550;2023-07-29T09:28:59;27.03;72.42
80290;SHT30;69592;44.804;-0.550;2023-07-29T09:31:26;26.92;73.15
80290;SHT30;69592;44.804;-0.550;2023-07-29T09:33:58;27.22;71.74
80290;SHT30;69592;44.804;-0.550;2023-07-29T09:36:24;27.31;71.57
80290;SHT30;69592;44.804;-0.550;2023-07-29T09:38:53;27.58;70.76
80290;SHT30;69592;44.804;-0.550;2023-07-29T09:41:18;27.18;71.83
80290;SHT30;69592;44.804;-0.550;2023-07-29T09:43:44;27.51;71.81
80290;SHT30;69592;44.804;-0.550;2023-07-29T09:46:09;27.74;70.96
80290;SHT30;69592;44.804;-0.550;2023-07-29T09:48:35;27.80;70.14
80290;SHT30;69592;44.804;-0.550;2023-07-29T09:51:14;28.05;69.24
80290;SHT30;69592;44.804;-0.550;2023-07-29T09:53:45;28.06;68.99
80290;SHT30;69592;44.804;-0.550;2023-07-29T09:56:10;28.18;68.45
80290;SHT30;69592;44.804;-0.550;2023-07-29T09:58:37;28.43;67.85
80290;SHT30;69592;44.804;-0.550;2023-07-29T10:01:05;28.40;67.54
80290;SHT30;69592;44.804;-0.550;2023-07-29T10:03:31;28.35;67.28
80290;SHT30;69592;44.804;-0.550;2023-07-29T10:06:00;28.32;67.89
80290;SHT30;69592;44.804;-0.550;2023-07-29T10:08:27;28.43;68.07
80290;SHT30;69592;44.804;-0.550;2023-07-29T10:10:54;28.55;67.24
80290;SHT30;69592;44.804;-0.550;2023-07-29T10:13:20;28.64;67.17
80290;SHT30;69592;44.804;-0.550;2023-07-29T10:15:46;28.66;66.82
80290;SHT30;69592;44.804;-0.550;2023-07-29T10:18:12;28.71;66.85
80290;SHT30;69592;44.804;-0.550;2023-07-29T10:20:38;28.83;66.78
80290;SHT30;69592;44.804;-0.550;2023-07-29T10:23:07;28.70;68.19
80290;SHT30;69592;44.804;-0.550;2023-07-29T10:25:43;28.49;67.57
80290;SHT30;69592;44.804;-0.550;2023-07-29T10:28:12;28.60;67.90
80290;SHT30;69592;44.804;-0.550;2023-07-29T10:30:38;28.69;68.02
80290;SHT30;69592;44.804;-0.550;2023-07-29T10:33:04;28.79;68.31
80290;SHT30;69592;44.804;-0.550;2023-07-29T10:35:32;29.03;67.19
80290;SHT30;69592;44.804;-0.550;2023-07-29T10:37:59;29.10;67.84
80290;SHT30;69592;44.804;-0.550;2023-07-29T10:40:24;29.21;66.77
80290;SHT30;69592;44.804;-0.550;2023-07-29T10:43:32;28.99;66.95
80290;SHT30;69592;44.804;-0.550;2023-07-29T10:45:58;29.51;65.98
80290;SHT30;69592;44.804;-0.550;2023-07-29T10:48:40;29.96;64.67
80290;SHT30;69592;44.804;-0.550;2023-07-29T10:51:36;30.19;63.69
80290;SHT30;69592;44.804;-0.550;2023-07-29T10:54:03;30.44;63.76
80290;SHT30;69592;44.804;-0.550;2023-07-29T10:56:29;30.30;64.34
80290;SHT30;69592;44.804;-0.550;2023-07-29T10:58:56;30.26;63.58
80290;SHT30;69592;44.804;-0.550;2023-07-29T11:01:30;29.64;63.54
80290;SHT30;69592;44.804;-0.550;2023-07-29T11:10:02;29.52;65.31
80290;SHT30;69592;44.804;-0.550;2023-07-29T11:17:39;29.10;66.06
80290;SHT30;69592;44.804;-0.550;2023-07-29T11:20:05;28.91;66.34
80290;SHT30;69592;44.804;-0.550;2023-07-29T11:22:32;28.71;66.65
80290;SHT30;69592;44.804;-0.550;2023-07-29T11:24:58;29.06;65.75
80290;SHT30;69592;44.804;-0.550;2023-07-29T11:27:23;29.30;65.78
80290;SHT30;69592;44.804;-0.550;2023-07-29T11:29:49;29.52;66.20
80290;SHT30;69592;44.804;-0.550;2023-07-29T11:32:15;29.82;64.22
80290;SHT30;69592;44.804;-0.550;2023-07-29T11:34:41;29.76;64.48
80290;SHT30;69592;44.804;-0.550;2023-07-29T11:37:09;30.05;63.49
80290;SHT30;69592;44.804;-0.550;2023-07-29T11:39:41;30.10;63.38
80290;SHT30;69592;44.804;-0.550;2023-07-29T11:42:11;29.64;63.17
80290;SHT30;69592;44.804;-0.550;2023-07-29T11:44:37;29.47;64.80
80290;SHT30;69592;44.804;-0.550;2023-07-29T11:47:05;29.55;63.78
80290;SHT30;69592;44.804;-0.550;2023-07-29T11:49:32;29.76;63.79
80290;SHT30;69592;44.804;-0.550;2023-07-29T11:51:58;29.86;62.91
80290;SHT30;69592;44.804;-0.550;2023-07-29T11:54:25;30.06;62.68
80290;SHT30;69592;44.804;-0.550;2023-07-29T11:56:50;30.20;61.96
80290;SHT30;69592;44.804;-0.550;2023-07-29T11:59:15;30.44;61.33
80290;SHT30;69592;44.804;-0.550;2023-07-29T12:01:45;30.68;61.20
80290;SHT30;69592;44.804;-0.550;2023-07-29T12:04:10;30.57;61.11
80290;SHT30;69592;44.804;-0.550;2023-07-29T12:06:37;30.77;61.30
80290;SHT30;69592;44.804;-0.550;2023-07-29T12:09:03;30.70;60.69
80290;SHT30;69592;44.804;-0.550;2023-07-29T12:11:28;30.52;60.89
80290;SHT30;69592;44.804;-0.550;2023-07-29T12:13:54;30.30;61.10
80290;SHT30;69592;44.804;-0.550;2023-07-29T12:16:19;30.57;60.79
80290;SHT30;69592;44.804;-0.550;2023-07-29T12:18:45;29.78;61.54
80290;SHT30;69592;44.804;-0.550;2023-07-29T12:21:10;29.82;62.03
80290;SHT30;69592;44.804;-0.550;2023-07-29T12:23:36;29.89;61.54
80290;SHT30;69592;44.804;-0.550;2023-07-29T12:26:01;29.68;62.19
80290;SHT30;69592;44.804;-0.550;2023-07-29T12:28:27;29.47;62.94
80290;SHT30;69592;44.804;-0.550;2023-07-29T12:30:56;29.17;63.48
80290;SHT30;69592;44.804;-0.550;2023-07-29T12:33:32;29.28;62.82
80290;SHT30;69592;44.804;-0.550;2023-07-29T12:35:58;28.83;63.33
80290;SHT30;69592;44.804;-0.550;2023-07-29T12:38:26;29.30;63.33
80290;SHT30;69592;44.804;-0.550;2023-07-29T12:40:51;29.75;62.63
80290;SHT30;69592;44.804;-0.550;2023-07-29T12:43:17;30.48;61.92
80290;SHT30;69592;44.804;-0.550;2023-07-29T12:45:45;30.81;62.39
80290;SHT30;69592;44.804;-0.550;2023-07-29T12:48:11;30.80;62.21
80290;SHT30;69592;44.804;-0.550;2023-07-29T12:50:37;30.53;63.22
80290;SHT30;69592;44.804;-0.550;2023-07-29T12:53:04;30.47;61.80
80290;SHT30;69592;44.804;-0.550;2023-07-29T12:55:30;30.33;62.03
80290;SHT30;69592;44.804;-0.550;2023-07-29T12:57:55;30.26;61.29
80290;SHT30;69592;44.804;-0.550;2023-07-29T13:00:21;30.33;61.20
80290;SHT30;69592;44.804;-0.550;2023-07-29T13:02:47;30.37;61.36
80290;SHT30;69592;44.804;-0.550;2023-07-29T13:05:12;30.09;61.36
80290;SHT30;69592;44.804;-0.550;2023-07-29T13:07:42;30.30;61.94
80290;SHT30;69592;44.804;-0.550;2023-07-29T13:10:08;30.61;61.41
80290;SHT30;69592;44.804;-0.550;2023-07-29T13:12:34;30.35;59.97
80290;SHT30;69592;44.804;-0.550;2023-07-29T13:14:59;29.79;61.09
80290;SHT30;69592;44.804;-0.550;2023-07-29T13:17:25;30.03;61.11
80290;SHT30;69592;44.804;-0.550;2023-07-29T13:19:50;30.16;60.28
80290;SHT30;69592;44.804;-0.550;2023-07-29T13:22:16;30.06;60.07
80290;SHT30;69592;44.804;-0.550;2023-07-29T13:24:42;29.76;60.51
80290;SHT30;69592;44.804;-0.550;2023-07-29T13:27:07;29.65;61.07
80290;SHT30;69592;44.804;-0.550;2023-07-29T13:29:33;29.50;61.10
80290;SHT30;69592;44.804;-0.550;2023-07-29T13:31:58;29.06;63.08
80290;SHT30;69592;44.804;-0.550;2023-07-29T13:34:23;28.55;66.57
80290;SHT30;69592;44.804;-0.550;2023-07-29T13:36:49;28.64;67.96
80290;SHT30;69592;44.804;-0.550;2023-07-29T13:39:15;28.94;65.82
80290;SHT30;69592;44.804;-0.550;2023-07-29T13:41:40;27.87;68.51
80290;SHT30;69592;44.804;-0.550;2023-07-29T13:44:06;27.82;68.16
80290;SHT30;69592;44.804;-0.550;2023-07-29T13:46:31;27.68;68.64
80290;SHT30;69592;44.804;-0.550;2023-07-29T13:48:56;27.65;70.74
80290;SHT30;69592;44.804;-0.550;2023-07-29T13:51:22;28.22;69.38
80290;SHT30;69592;44.804;-0.550;2023-07-29T13:53:48;28.29;68.96
80290;SHT30;69592;44.804;-0.550;2023-07-29T13:56:13;28.48;68.20
80290;SHT30;69592;44.804;-0.550;2023-07-29T13:58:39;28.45;68.08
80290;SHT30;69592;44.804;-0.550;2023-07-29T14:01:04;28.09;69.78
80290;SHT30;69592;44.804;-0.550;2023-07-29T14:03:30;28.42;69.36
80290;SHT30;69592;44.804;-0.550;2023-07-29T14:05:55;28.25;69.16
80290;SHT30;69592;44.804;-0.550;2023-07-29T14:08:20;28.13;70.35
80290;SHT30;69592;44.804;-0.550;2023-07-29T14:10:51;28.48;69.89
80290;SHT30;69592;44.804;-0.550;2023-07-29T14:13:17;28.57;69.77
80290;SHT30;69592;44.804;-0.550;2023-07-29T14:15:42;28.64;71.89
80290;SHT30;69592;44.804;-0.550;2023-07-29T14:18:08;28.79;71.49
80290;SHT30;69592;44.804;-0.550;2023-07-29T14:20:33;28.91;70.01
80290;SHT30;69592;44.804;-0.550;2023-07-29T14:22:59;29.12;68.88
80290;SHT30;69592;44.804;-0.550;2023-07-29T14:25:24;29.64;66.80
80290;SHT30;69592;44.804;-0.550;2023-07-29T14:27:50;29.58;67.20
80290;SHT30;69592;44.804;-0.550;2023-07-29T14:30:15;29.45;66.70
80290;SHT30;69592;44.804;-0.550;2023-07-29T14:32:41;29.57;67.09
80290;SHT30;69592;44.804;-0.550;2023-07-29T14:35:06;29.34;68.17
80290;SHT30;69592;44.804;-0.550;2023-07-29T14:37:33;29.69;66.98
80290;SHT30;69592;44.804;-0.550;2023-07-29T14:39:59;29.20;67.64
80290;SHT30;69592;44.804;-0.550;2023-07-29T14:42:25;29.04;67.77
80290;SHT30;69592;44.804;-0.550;2023-07-29T14:44:50;29.24;68.07
80290;SHT30;69592;44.804;-0.550;2023-07-29T14:47:16;29.14;67.76
80290;SHT30;69592;44.804;-0.550;2023-07-29T14:49:41;28.89;68.67
80290;SHT30;69592;44.804;-0.550;2023-07-29T14:52:07;28.90;68.18
80290;SHT30;69592;44.804;-0.550;2023-07-29T14:54:32;29.12;67.03
80290;SHT30;69592;44.804;-0.550;2023-07-29T14:56:58;28.61;66.19
80290;SHT30;69592;44.804;-0.550;2023-07-29T14:59:23;28.60;67.25
80290;SHT30;69592;44.804;-0.550;2023-07-29T15:01:48;28.90;67.30
80290;SHT30;69592;44.804;-0.550;2023-07-29T15:04:14;29.06;66.49
80290;SHT30;69592;44.804;-0.550;2023-07-29T15:06:39;29.30;66.30
80290;SHT30;69592;44.804;-0.550;2023-07-29T15:09:05;29.66;65.15
80290;SHT30;69592;44.804;-0.550;2023-07-29T15:11:31;30.08;62.81
80290;SHT30;69592;44.804;-0.550;2023-07-29T15:13:58;30.30;63.11
80290;SHT30;69592;44.804;-0.550;2023-07-29T15:16:24;30.29;62.84
80290;SHT30;69592;44.804;-0.550;2023-07-29T15:18:50;29.96;63.24
80290;SHT30;69592;44.804;-0.550;2023-07-29T15:21:15;29.04;63.96
80290;SHT30;69592;44.804;-0.550;2023-07-29T15:23:41;29.27;64.79
80290;SHT30;69592;44.804;-0.550;2023-07-29T15:26:07;29.18;63.85
80290;SHT30;69592;44.804;-0.550;2023-07-29T15:28:32;28.74;64.61
80290;SHT30;69592;44.804;-0.550;2023-07-29T15:30:58;27.64;68.15